Wetterdaten: Woche 29.02.16 - 06.03.16 (KW9)
Datum Zeit Temp. A. Feuchte A. Luftdruck Regen Wind Richtung Taupunkt Windchill Windben
29.02.2016 00:00 6,9 C 83 % 1014,7 hPa 0,0 l/m 0,2 km/h N 4,2 C 6,9 C 2,8 km/h
29.02.2016 01:00 6,7 C 83 % 1014,4 hPa 0,0 l/m 0,3 km/h N 4,0 C 6,7 C 4,0 km/h
29.02.2016 02:00 6,5 C 83 % 1013,8 hPa 0,0 l/m 0,2 km/h N 3,9 C 6,5 C 2,8 km/h
29.02.2016 03:00 6,3 C 84 % 1013,5 hPa 0,0 l/m 0,1 km/h N 3,8 C 6,3 C 2,0 km/h
29.02.2016 04:00 6,2 C 84 % 1013,4 hPa 0,0 l/m 0,4 km/h N 3,7 C 6,2 C 5,2 km/h
29.02.2016 05:00 6,1 C 83 % 1013,0 hPa 0,0 l/m 0,1 km/h N 3,5 C 6,1 C 2,4 km/h
29.02.2016 06:00 5,9 C 84 % 1012,7 hPa 0,3 l/m 0,0 km/h N 3,3 C 5,9 C 0,0 km/h
29.02.2016 07:00 5,9 C 83 % 1012,7 hPa 1,3 l/m 0,0 km/h N 3,2 C 5,9 C 0,0 km/h
29.02.2016 08:00 6,1 C 83 % 1012,5 hPa 0,8 l/m 0,0 km/h N 3,5 C 6,1 C 1,2 km/h
29.02.2016 09:00 6,4 C 83 % 1012,0 hPa 0,0 l/m 0,0 km/h N 3,7 C 6,4 C 0,0 km/h
29.02.2016 10:00 6,7 C 83 % 1011,6 hPa 3,1 l/m 0,0 km/h N 4,0 C 6,7 C 0,8 km/h
29.02.2016 11:00 7,0 C 83 % 1010,9 hPa 3,9 l/m 0,1 km/h N 4,3 C 7,0 C 2,4 km/h
29.02.2016 12:00 7,6 C 82 % 1009,6 hPa 0,3 l/m 0,4 km/h N 4,8 C 7,6 C 4,4 km/h
29.02.2016 13:00 7,7 C 82 % 1009,3 hPa 0,0 l/m 0,8 km/h N 4,8 C 7,7 C 6,0 km/h
29.02.2016 14:00 7,7 C 82 % 1009,0 hPa 0,5 l/m 0,1 km/h N 4,8 C 7,7 C 1,6 km/h
29.02.2016 15:00 7,8 C 82 % 1008,6 hPa 0,5 l/m 0,1 km/h N 4,9 C 7,8 C 2,0 km/h
29.02.2016 16:00 7,8 C 82 % 1008,4 hPa 0,0 l/m 0,0 km/h N 4,9 C 7,8 C 1,2 km/h
29.02.2016 17:00 7,8 C 82 % 1008,3 hPa 0,0 l/m 0,2 km/h N 5,0 C 7,8 C 2,4 km/h
29.02.2016 18:00 7,6 C 82 % 1008,9 hPa 0,0 l/m 0,2 km/h N 4,8 C 7,6 C 2,8 km/h
29.02.2016 19:00 7,2 C 82 % 1009,0 hPa 0,0 l/m 0,0 km/h N 4,3 C 7,2 C 0,8 km/h
29.02.2016 20:00 6,8 C 82 % 1008,9 hPa 0,0 l/m 0,0 km/h N 4,0 C 6,8 C 0,0 km/h
29.02.2016 21:00 6,6 C 82 % 1009,0 hPa 0,0 l/m 0,0 km/h N 3,8 C 6,6 C 0,0 km/h
29.02.2016 22:00 6,3 C 82 % 1009,0 hPa 0,0 l/m 0,0 km/h N 3,5 C 6,3 C 0,8 km/h
29.02.2016 23:00 6,2 C 82 % 1009,1 hPa 0,0 l/m 1,7 km/h N 3,3 C 6,2 C 6,8 km/h
01.03.2016 00:00 6,0 C 82 % 1009,6 hPa 0,0 l/m 10,2 km/h N 3,2 C 3,2 C 25,0 km/h
01.03.2016 01:00 4,9 C 83 % 1010,2 hPa 0,0 l/m 14,8 km/h N 2,4 C -0,8 C 29,8 km/h
01.03.2016 02:00 4,6 C 81 % 1010,3 hPa 0,0 l/m 16,3 km/h N 1,5 C -2,1 C 36,2 km/h
01.03.2016 03:00 4,1 C 80 % 1010,0 hPa 0,0 l/m 17,8 km/h N 1,0 C -3,3 C 35,4 km/h
01.03.2016 04:00 3,8 C 80 % 1010,1 hPa 0,0 l/m 17,0 km/h N 0,6 C -3,3 C 39,0 km/h
01.03.2016 05:00 3,7 C 78 % 1010,4 hPa 0,0 l/m 18,8 km/h N 0,3 C -4,3 C 43,5 km/h
01.03.2016 06:00 3,5 C 76 % 1010,3 hPa 0,0 l/m 19,8 km/h N -0,3 C -5,0 C 44,7 km/h
01.03.2016 07:00 3,1 C 77 % 1010,6 hPa 0,0 l/m 22,4 km/h N -0,5 C -6,6 C 49,5 km/h
01.03.2016 08:00 2,9 C 77 % 1011,5 hPa 0,0 l/m 25,3 km/h N -0,7 C -7,9 C 54,7 km/h
01.03.2016 09:00 3,0 C 76 % 1011,4 hPa 0,0 l/m 26,9 km/h N -0,8 C -8,3 C 56,7 km/h
01.03.2016 10:00 3,2 C 74 % 1012,7 hPa 0,0 l/m 22,2 km/h N -1,0 C -6,4 C 54,3 km/h
01.03.2016 11:00 3,4 C 72 % 1013,7 hPa 0,0 l/m 19,6 km/h N -1,3 C -5,1 C 47,1 km/h
01.03.2016 12:00 3,5 C 70 % 1013,2 hPa 0,0 l/m 22,8 km/h N -1,4 C -6,3 C 48,7 km/h
01.03.2016 13:00 3,6 C 69 % 1013,6 hPa 0,0 l/m 21,5 km/h N -1,6 C -5,5 C 49,9 km/h
01.03.2016 14:00 3,6 C 68 % 1014,3 hPa 0,0 l/m 19,4 km/h N -1,7 C -4,8 C 51,1 km/h
01.03.2016 15:00 3,3 C 69 % 1014,1 hPa 0,0 l/m 16,8 km/h N -1,8 C -3,8 C 41,1 km/h
01.03.2016 16:00 3,1 C 69 % 1014,5 hPa 0,0 l/m 17,8 km/h N -2,0 C -4,6 C 43,5 km/h
01.03.2016 17:00 3,0 C 70 % 1014,7 hPa 0,0 l/m 18,0 km/h N -1,9 C -4,8 C 43,0 km/h
01.03.2016 18:00 3,0 C 71 % 1014,6 hPa 0,0 l/m 18,3 km/h N -1,8 C -4,9 C 41,0 km/h
01.03.2016 19:00 3,1 C 71 % 1014,8 hPa 0,0 l/m 15,5 km/h N -1,7 C -3,4 C 43,1 km/h
01.03.2016 20:00 3,1 C 72 % 1014,7 hPa 0,0 l/m 14,0 km/h N -1,6 C -2,6 C 38,2 km/h
01.03.2016 21:00 3,1 C 73 % 1014,6 hPa 0,0 l/m 12,6 km/h N -1,2 C -1,8 C 37,8 km/h
01.03.2016 22:00 3,1 C 76 % 1014,6 hPa 0,0 l/m 11,0 km/h N -0,6 C -0,7 C 29,0 km/h
01.03.2016 23:00 3,4 C 75 % 1014,5 hPa 0,0 l/m 11,0 km/h N -0,7 C -0,4 C 30,2 km/h
02.03.2016 00:00 3,6 C 72 % 1014,3 hPa 0,0 l/m 8,8 km/h N -1,0 C 1,5 C 26,6 km/h
02.03.2016 01:00 3,8 C 72 % 1013,8 hPa 0,0 l/m 5,2 km/h N -0,8 C 3,3 C 15,3 km/h
02.03.2016 02:00 3,9 C 71 % 1013,0 hPa 0,0 l/m 9,1 km/h N -0,9 C 1,5 C 29,0 km/h
02.03.2016 03:00 3,7 C 71 % 1012,5 hPa 0,0 l/m 5,0 km/h N -1,0 C 3,2 C 17,7 km/h
02.03.2016 04:00 3,1 C 72 % 1012,6 hPa 0,0 l/m 0,5 km/h N -1,5 C 3,1 C 4,3 km/h
02.03.2016 05:00 1,7 C 74 % 1012,6 hPa 0,0 l/m 0,0 km/h N -2,4 C 1,7 C 1,2 km/h
02.03.2016 06:00 0,9 C 78 % 1012,4 hPa 0,0 l/m 0,0 km/h N -2,4 C 0,9 C 0,4 km/h
02.03.2016 07:00 0,6 C 80 % 1012,3 hPa 0,0 l/m 0,0 km/h N -2,5 C 0,6 C 0,4 km/h
02.03.2016 08:00 2,4 C 81 % 1011,8 hPa 0,0 l/m 0,3 km/h N -0,5 C 2,4 C 5,6 km/h
02.03.2016 09:00 5,4 C 72 % 1010,9 hPa 0,0 l/m 1,1 km/h N 0,8 C 5,4 C 8,0 km/h
02.03.2016 10:00 7,1 C 66 % 1010,1 hPa 0,0 l/m 0,9 km/h N 1,2 C 7,1 C 6,8 km/h
02.03.2016 11:00 7,3 C 65 % 1009,4 hPa 0,0 l/m 1,2 km/h N 1,2 C 7,3 C 7,6 km/h
02.03.2016 12:00 8,1 C 64 % 1008,0 hPa 0,0 l/m 0,7 km/h N 1,8 C 8,1 C 6,8 km/h
02.03.2016 13:00 8,9 C 60 % 1007,0 hPa 0,0 l/m 0,7 km/h N 1,5 C 8,9 C 7,2 km/h
02.03.2016 14:00 9,5 C 62 % 1005,9 hPa 0,0 l/m 0,3 km/h N 2,6 C 9,5 C 6,0 km/h
02.03.2016 15:00 9,6 C 63 % 1004,6 hPa 0,0 l/m 1,0 km/h N 3,0 C 9,6 C 7,2 km/h
02.03.2016 16:00 9,3 C 64 % 1003,7 hPa 0,0 l/m 0,8 km/h N 2,8 C 9,3 C 8,1 km/h
02.03.2016 17:00 8,3 C 69 % 1002,6 hPa 0,0 l/m 0,0 km/h N 2,9 C 8,3 C 1,6 km/h
02.03.2016 18:00 6,9 C 73 % 1001,8 hPa 0,0 l/m 0,0 km/h N 2,4 C 6,9 C 2,4 km/h
02.03.2016 19:00 6,2 C 78 % 1001,2 hPa 0,0 l/m 0,0 km/h N 2,6 C 6,2 C 2,4 km/h
02.03.2016 20:00 6,1 C 80 % 1000,4 hPa 0,0 l/m 0,0 km/h N 2,9 C 6,1 C 5,6 km/h
02.03.2016 21:00 6,1 C 80 % 999,7 hPa 0,0 l/m 0,0 km/h N 2,9 C 6,1 C 2,4 km/h
02.03.2016 22:00 6,5 C 79 % 999,5 hPa 0,0 l/m 0,0 km/h N 3,1 C 6,5 C 5,6 km/h
02.03.2016 23:00 7,0 C 77 % 1000,0 hPa 0,0 l/m 0,8 km/h N 3,2 C 7,0 C 5,6 km/h
03.03.2016 00:00 6,7 C 77 % 1000,4 hPa 0,0 l/m 0,0 km/h N 2,9 C 6,7 C 2,4 km/h
03.03.2016 01:00 6,4 C 76 % 1001,0 hPa 0,0 l/m 5,6 km/h N 2,4 C 6,4 C 23,3 km/h
03.03.2016 02:00 4,6 C 80 % 1001,3 hPa 0,3 l/m 8,0 km/h N 1,4 C 3,1 C 28,2 km/h
03.03.2016 03:00 4,3 C 81 % 1001,3 hPa 0,0 l/m 7,2 km/h N 1,3 C 3,6 C 22,5 km/h
03.03.2016 04:00 4,3 C 81 % 1001,3 hPa 0,3 l/m 6,4 km/h N 1,2 C 4,3 C 22,5 km/h
03.03.2016 05:00 4,3 C 80 % 1001,4 hPa 0,0 l/m 6,4 km/h N 1,2 C 4,3 C 19,3 km/h
03.03.2016 06:00 4,2 C 80 % 1001,7 hPa 0,0 l/m 6,2 km/h N 1,1 C 4,2 C 16,6 km/h
03.03.2016 07:00 4,1 C 80 % 1001,8 hPa 0,0 l/m 5,9 km/h N 1,0 C 3,4 C 17,3 km/h
03.03.2016 08:00 4,1 C 80 % 1002,2 hPa 0,0 l/m 7,5 km/h N 1,0 C 3,2 C 18,9 km/h
03.03.2016 09:00 4,3 C 80 % 1002,3 hPa 0,0 l/m 8,0 km/h N 1,1 C 2,9 C 18,5 km/h
03.03.2016 10:00 4,3 C 81 % 1002,2 hPa 0,0 l/m 7,8 km/h N 1,4 C 3,1 C 19,7 km/h
03.03.2016 11:00 4,6 C 81 % 1002,0 hPa 0,0 l/m 8,1 km/h N 1,5 C 3,1 C 18,5 km/h
03.03.2016 12:00 5,2 C 80 % 1001,5 hPa 0,0 l/m 7,8 km/h N 2,0 C 4,1 C 18,1 km/h
03.03.2016 13:00 5,1 C 80 % 1001,3 hPa 0,3 l/m 6,9 km/h N 2,0 C 4,2 C 17,7 km/h
03.03.2016 14:00 4,7 C 82 % 1001,0 hPa 0,8 l/m 5,8 km/h N 1,8 C 4,6 C 15,3 km/h
03.03.2016 15:00 4,3 C 83 % 1001,0 hPa 0,0 l/m 4,6 km/h N 1,7 C 4,3 C 11,3 km/h
03.03.2016 16:00 4,3 C 82 % 1000,9 hPa 0,0 l/m 5,5 km/h N 1,5 C 4,2 C 14,5 km/h
03.03.2016 17:00 4,0 C 83 % 1001,1 hPa 0,0 l/m 6,4 km/h N 1,4 C 3,9 C 16,1 km/h
03.03.2016 18:00 3,8 C 82 % 1001,6 hPa 0,0 l/m 6,8 km/h N 1,0 C 3,3 C 16,1 km/h
03.03.2016 19:00 3,7 C 83 % 1002,1 hPa 0,5 l/m 6,0 km/h N 1,1 C 3,6 C 13,7 km/h
03.03.2016 20:00 3,2 C 84 % 1002,7 hPa 1,0 l/m 3,7 km/h N 0,7 C 3,2 C 8,1 km/h
03.03.2016 21:00 3,0 C 84 % 1003,3 hPa 0,5 l/m 5,8 km/h N 0,5 C 2,8 C 14,1 km/h
03.03.2016 22:00 2,5 C 84 % 1003,8 hPa 0,3 l/m 7,8 km/h N 0,0 C 1,1 C 19,3 km/h
03.03.2016 23:00 2,1 C 84 % 1003,8 hPa 0,5 l/m 10,3 km/h N -0,3 C -1,3 C 26,2 km/h
04.03.2016 00:00 2,1 C 84 % 1003,8 hPa 0,3 l/m 13,5 km/h N -0,3 C -3,6 C 30,6 km/h
04.03.2016 01:00 2,0 C 84 % 1004,1 hPa 0,0 l/m 12,9 km/h N -0,4 C -3,2 C 27,8 km/h
04.03.2016 02:00 2,0 C 84 % 1004,2 hPa 0,0 l/m 13,7 km/h N -0,4 C -3,8 C 28,6 km/h
04.03.2016 03:00 2,1 C 84 % 1004,5 hPa 0,0 l/m 11,8 km/h N -0,3 C -2,5 C 25,3 km/h
04.03.2016 04:00 2,4 C 83 % 1004,5 hPa 0,0 l/m 12,3 km/h N -0,2 C -2,4 C 28,4 km/h
04.03.2016 05:00 2,7 C 80 % 1005,0 hPa 0,0 l/m 12,9 km/h N -0,4 C -2,4 C 28,5 km/h
04.03.2016 06:00 2,9 C 79 % 1005,6 hPa 0,0 l/m 13,1 km/h N -0,4 C -2,3 C 29,0 km/h
04.03.2016 07:00 3,1 C 77 % 1006,1 hPa 0,0 l/m 14,6 km/h N -0,5 C -3,0 C 29,0 km/h
04.03.2016 08:00 3,3 C 76 % 1006,6 hPa 0,0 l/m 12,9 km/h N -0,5 C -1,7 C 27,0 km/h
04.03.2016 09:00 3,8 C 75 % 1006,8 hPa 0,0 l/m 11,7 km/h N -0,2 C -0,4 C 24,5 km/h
04.03.2016 10:00 4,9 C 72 % 1006,5 hPa 0,0 l/m 12,6 km/h N 0,2 C 0,3 C 26,1 km/h
04.03.2016 11:00 6,3 C 68 % 1006,0 hPa 0,0 l/m 10,8 km/h N 0,7 C 3,0 C 23,3 km/h
04.03.2016 12:00 6,9 C 61 % 1005,5 hPa 0,0 l/m 11,1 km/h N -0,1 C 3,4 C 24,1 km/h
04.03.2016 13:00 7,3 C 59 % 1005,0 hPa 0,0 l/m 9,7 km/h N -0,3 C 4,9 C 21,3 km/h
04.03.2016 14:00 8,0 C 54 % 1004,4 hPa 0,0 l/m 9,3 km/h N -0,7 C 5,8 C 20,9 km/h
04.03.2016 15:00 8,2 C 51 % 1004,1 hPa 0,0 l/m 7,7 km/h N -1,4 C 7,2 C 19,7 km/h
04.03.2016 16:00 7,9 C 52 % 1004,1 hPa 0,0 l/m 4,9 km/h N -1,4 C 7,9 C 10,9 km/h
04.03.2016 17:00 7,2 C 53 % 1003,7 hPa 0,0 l/m 0,6 km/h N -1,7 C 7,2 C 2,4 km/h
04.03.2016 18:00 4,8 C 62 % 1003,4 hPa 0,0 l/m 0,0 km/h N -2,0 C 4,8 C 0,8 km/h
04.03.2016 19:00 3,2 C 72 % 1003,5 hPa 0,0 l/m 0,0 km/h N -1,3 C 3,2 C 0,8 km/h
04.03.2016 20:00 2,4 C 79 % 1003,6 hPa 0,0 l/m 0,0 km/h N -0,9 C 2,4 C 0,8 km/h
04.03.2016 21:00 2,2 C 81 % 1003,2 hPa 0,0 l/m 0,1 km/h N -0,6 C 2,2 C 1,2 km/h
04.03.2016 22:00 1,3 C 81 % 1002,6 hPa 0,0 l/m 0,0 km/h N -1,6 C 1,3 C 0,0 km/h
04.03.2016 23:00 0,0 C 82 % 1001,8 hPa 0,0 l/m 0,0 km/h N -2,7 C 0,0 C 0,0 km/h
05.03.2016 00:00 -0,5 C 83 % 1001,3 hPa 0,0 l/m 0,0 km/h N -3,0 C -0,5 C 0,4 km/h
05.03.2016 01:00 -0,6 C 84 % 1000,7 hPa 0,0 l/m 0,0 km/h N -3,0 C -0,6 C 0,0 km/h
05.03.2016 02:00 -1,0 C 84 % 1000,1 hPa 0,0 l/m 0,0 km/h N -3,3 C -1,0 C 0,0 km/h
05.03.2016 03:00 -1,0 C 84 % 999,3 hPa 0,0 l/m 0,1 km/h N -3,4 C -1,0 C 0,8 km/h
05.03.2016 04:00 -0,9 C 84 % 998,5 hPa 0,0 l/m 0,0 km/h N -3,3 C -0,9 C 1,1 km/h
05.03.2016 05:00 -1,4 C 84 % 998,0 hPa 0,0 l/m 0,0 km/h N -3,8 C -1,4 C 0,8 km/h
05.03.2016 06:00 -1,3 C 84 % 997,7 hPa 0,0 l/m 0,7 km/h N -3,7 C -1,3 C 2,8 km/h
05.03.2016 07:00 -0,4 C 83 % 998,1 hPa 0,0 l/m 0,1 km/h N -2,9 C -0,4 C 2,0 km/h
05.03.2016 08:00 0,6 C 83 % 998,2 hPa 0,0 l/m 0,1 km/h N -2,0 C 0,6 C 2,0 km/h
05.03.2016 09:00 2,0 C 83 % 998,1 hPa 0,0 l/m 1,9 km/h N -0,5 C 2,0 C 5,2 km/h
05.03.2016 10:00 3,8 C 83 % 998,1 hPa 0,0 l/m 3,1 km/h N 1,2 C 3,8 C 7,2 km/h
05.03.2016 11:00 5,7 C 75 % 998,0 hPa 0,0 l/m 1,6 km/h N 1,6 C 5,7 C 6,4 km/h
05.03.2016 12:00 8,2 C 62 % 997,6 hPa 0,0 l/m 0,2 km/h N 1,4 C 8,2 C 5,2 km/h
05.03.2016 13:00 10,6 C 56 % 996,8 hPa 0,0 l/m 0,2 km/h N 2,3 C 10,6 C 3,2 km/h
05.03.2016 14:00 12,3 C 53 % 996,3 hPa 0,0 l/m 0,8 km/h N 2,8 C 12,3 C 6,0 km/h
05.03.2016 15:00 13,2 C 50 % 995,8 hPa 0,0 l/m 1,9 km/h N 3,1 C 13,2 C 10,9 km/h
05.03.2016 16:00 12,4 C 52 % 995,5 hPa 0,0 l/m 4,3 km/h N 2,8 C 12,4 C 15,3 km/h
05.03.2016 17:00 10,9 C 56 % 995,9 hPa 0,0 l/m 6,6 km/h N 2,6 C 10,7 C 24,1 km/h
05.03.2016 18:00 10,1 C 60 % 996,1 hPa 0,0 l/m 5,9 km/h N 2,6 C 10,0 C 19,7 km/h
05.03.2016 19:00 9,9 C 61 % 996,3 hPa 0,0 l/m 6,4 km/h N 2,8 C 9,8 C 20,1 km/h
05.03.2016 20:00 9,8 C 60 % 997,1 hPa 0,0 l/m 3,8 km/h N 2,5 C 9,8 C 12,9 km/h
05.03.2016 21:00 9,7 C 60 % 997,0 hPa 0,0 l/m 4,0 km/h N 2,3 C 9,7 C 13,7 km/h
05.03.2016 22:00 9,2 C 62 % 997,1 hPa 0,0 l/m 1,8 km/h N 2,2 C 9,2 C 8,1 km/h
05.03.2016 23:00 8,5 C 65 % 997,2 hPa 0,0 l/m 0,6 km/h N 2,2 C 8,5 C 5,2 km/h
06.03.2016 00:00 8,3 C 66 % 996,7 hPa 0,0 l/m 2,2 km/h N 2,3 C 8,3 C 10,5 km/h
06.03.2016 01:00 8,0 C 67 % 996,1 hPa 0,0 l/m 2,3 km/h N 2,3 C 8,0 C 9,3 km/h
06.03.2016 02:00 7,7 C 69 % 995,7 hPa 0,0 l/m 0,8 km/h N 2,3 C 7,7 C 6,8 km/h
06.03.2016 03:00 7,1 C 71 % 995,1 hPa 0,0 l/m 0,7 km/h N 2,2 C 7,1 C 6,4 km/h
06.03.2016 04:00 6,5 C 74 % 995,1 hPa 0,0 l/m 0,6 km/h N 2,2 C 6,5 C 7,2 km/h
06.03.2016 05:00 6,1 C 76 % 996,1 hPa 0,0 l/m 1,9 km/h N 2,3 C 6,1 C 6,8 km/h
06.03.2016 06:00 6,3 C 74 % 997,1 hPa 0,0 l/m 7,5 km/h N 1,9 C 4,7 C 23,3 km/h
06.03.2016 07:00 6,0 C 71 % 997,4 hPa 0,0 l/m 9,1 km/h N 1,1 C 3,8 C 25,3 km/h
06.03.2016 08:00 6,3 C 68 % 998,0 hPa 0,0 l/m 10,9 km/h N 0,8 C 3,0 C 34,2 km/h
06.03.2016 09:00 6,8 C 67 % 998,6 hPa 0,0 l/m 10,8 km/h N 1,1 C 3,6 C 33,0 km/h
06.03.2016 10:00 8,7 C 61 % 999,6 hPa 0,0 l/m 10,4 km/h N 1,5 C 6,0 C 33,0 km/h
06.03.2016 11:00 8,6 C 57 % 1000,1 hPa 0,0 l/m 10,4 km/h N 0,5 C 5,8 C 29,3 km/h
06.03.2016 12:00 8,9 C 56 % 1000,6 hPa 0,0 l/m 11,3 km/h N 0,5 C 5,7 C 26,6 km/h
06.03.2016 13:00 10,2 C 51 % 1000,6 hPa 0,0 l/m 14,8 km/h N 0,5 C 5,5 C 31,0 km/h
06.03.2016 14:00 9,8 C 51 % 1000,8 hPa 0,0 l/m 12,4 km/h N 0,2 C 6,1 C 25,3 km/h
06.03.2016 15:00 9,6 C 51 % 1001,0 hPa 0,0 l/m 13,4 km/h N 0,0 C 5,4 C 27,4 km/h
06.03.2016 16:00 8,5 C 52 % 1001,4 hPa 0,0 l/m 11,4 km/h N -0,8 C 5,3 C 27,4 km/h
06.03.2016 17:00 7,7 C 55 % 1001,8 hPa 0,0 l/m 7,0 km/h N -0,8 C 6,7 C 16,9 km/h
06.03.2016 18:00 7,4 C 55 % 1002,8 hPa 0,0 l/m 3,0 km/h N -1,1 C 7,4 C 13,7 km/h
06.03.2016 19:00 7,1 C 58 % 1003,7 hPa 0,0 l/m 3,8 km/h N -0,7 C 7,1 C 14,9 km/h
06.03.2016 20:00 6,1 C 60 % 1004,1 hPa 0,0 l/m 1,2 km/h N -1,0 C 6,1 C 6,4 km/h
06.03.2016 21:00 5,6 C 66 % 1004,4 hPa 0,0 l/m 0,0 km/h N -0,3 C 5,6 C 0,8 km/h
06.03.2016 22:00 5,3 C 69 % 1004,3 hPa 0,0 l/m 0,2 km/h N -0,0 C 5,3 C 2,0 km/h
06.03.2016 23:00 5,7 C 64 % 1003,7 hPa 0,0 l/m 2,7 km/h N -0,6 C 5,7 C 6,4 km/h
Min-Datum _ 05.03.16 05.03.16 06.03.16 - 29.02.16 - 05.03.16 01.03.16 29.02.16
_ Min-Zeit 06:15 15:30 03:45 - 00:15 - 06:15 09:00 00:15
Minimum _ -1,6 C 49 % 994,8 hPa - 0,0 km/h - -3,9 C -9,0 C 0,0 km/h
Max-Datum _ 05.03.16 29.02.16 29.02.16 29.02.16 01.03.16 - 29.02.16 05.03.16 01.03.16
_ Max-Zeit 15:30 03:15 00:15 11:00 09:00 - 17:30 15:30 10:00
Maximum _ 13,4 C 84 % 1014,9 hPa 3,9 l/m 29,3 km/h
N
- 5,0 C 13,4 C 64,4 km/h
N
Durchschnitt _ 5,3 C 74 % 1005,0 hPa #15,3 l/m 6,0 km/h N 0,8 C 3,5 C 16,0 km/h